sensor_id;sensor_type;location;lat;lon;timestamp;P1;durP1;ratioP1;P2;durP2;ratioP2
35578;SDS011;21687;48.900;9.188;2023-01-28T00:00:04;11.93;;;5.13;;
35578;SDS011;21687;48.900;9.188;2023-01-28T00:02:53;6.67;;;4.97;;
35578;SDS011;21687;48.900;9.188;2023-01-28T00:05:39;6.60;;;5.23;;
35578;SDS011;21687;48.900;9.188;2023-01-28T00:08:26;8.03;;;5.13;;
35578;SDS011;21687;48.900;9.188;2023-01-28T00:11:13;6.37;;;4.87;;
35578;SDS011;21687;48.900;9.188;2023-01-28T00:14:00;7.10;;;5.33;;
35578;SDS011;21687;48.900;9.188;2023-01-28T00:16:49;6.37;;;5.10;;
35578;SDS011;21687;48.900;9.188;2023-01-28T00:19:36;6.50;;;4.87;;
35578;SDS011;21687;48.900;9.188;2023-01-28T00:22:22;6.00;;;4.77;;
35578;SDS011;21687;48.900;9.188;2023-01-28T00:25:09;7.60;;;5.43;;
35578;SDS011;21687;48.900;9.188;2023-01-28T00:27:55;6.30;;;4.60;;
35578;SDS011;21687;48.900;9.188;2023-01-28T00:30:42;6.23;;;4.50;;
35578;SDS011;21687;48.900;9.188;2023-01-28T00:33:29;9.63;;;5.80;;
35578;SDS011;21687;48.900;9.188;2023-01-28T00:36:16;6.23;;;5.00;;
35578;SDS011;21687;48.900;9.188;2023-01-28T00:39:04;6.13;;;4.63;;
35578;SDS011;21687;48.900;9.188;2023-01-28T00:41:51;8.63;;;5.73;;
35578;SDS011;21687;48.900;9.188;2023-01-28T00:44:37;5.60;;;4.50;;
35578;SDS011;21687;48.900;9.188;2023-01-28T00:47:27;9.93;;;6.53;;
35578;SDS011;21687;48.900;9.188;2023-01-28T00:50:13;11.20;;;7.20;;
35578;SDS011;21687;48.900;9.188;2023-01-28T00:53:00;13.60;;;8.17;;
35578;SDS011;21687;48.900;9.188;2023-01-28T00:55:47;11.47;;;5.60;;
35578;SDS011;21687;48.900;9.188;2023-01-28T00:58:34;7.10;;;4.30;;
35578;SDS011;21687;48.900;9.188;2023-01-28T01:01:25;7.03;;;4.83;;
35578;SDS011;21687;48.900;9.188;2023-01-28T01:04:12;4.93;;;4.23;;
35578;SDS011;21687;48.900;9.188;2023-01-28T01:06:58;5.83;;;4.10;;
35578;SDS011;21687;48.900;9.188;2023-01-28T01:09:45;10.07;;;5.83;;
35578;SDS011;21687;48.900;9.188;2023-01-28T01:12:31;5.37;;;4.30;;
35578;SDS011;21687;48.900;9.188;2023-01-28T01:15:18;10.57;;;6.13;;
35578;SDS011;21687;48.900;9.188;2023-01-28T01:18:05;5.17;;;4.53;;
35578;SDS011;21687;48.900;9.188;2023-01-28T01:20:51;6.40;;;4.23;;
35578;SDS011;21687;48.900;9.188;2023-01-28T01:23:43;8.30;;;5.20;;
35578;SDS011;21687;48.900;9.188;2023-01-28T01:26:30;5.50;;;3.67;;
35578;SDS011;21687;48.900;9.188;2023-01-28T01:29:16;5.90;;;3.90;;
35578;SDS011;21687;48.900;9.188;2023-01-28T01:32:03;6.00;;;4.10;;
35578;SDS011;21687;48.900;9.188;2023-01-28T01:34:49;5.40;;;3.93;;
35578;SDS011;21687;48.900;9.188;2023-01-28T01:37:36;4.70;;;3.70;;
35578;SDS011;21687;48.900;9.188;2023-01-28T01:40:23;5.47;;;4.07;;
35578;SDS011;21687;48.900;9.188;2023-01-28T01:43:19;5.10;;;4.03;;
35578;SDS011;21687;48.900;9.188;2023-01-28T01:46:07;4.20;;;3.47;;
35578;SDS011;21687;48.900;9.188;2023-01-28T01:48:54;5.37;;;3.80;;
35578;SDS011;21687;48.900;9.188;2023-01-28T01:51:46;5.10;;;3.93;;
35578;SDS011;21687;48.900;9.188;2023-01-28T01:54:36;5.83;;;3.93;;
35578;SDS011;21687;48.900;9.188;2023-01-28T01:57:28;5.23;;;3.77;;
35578;SDS011;21687;48.900;9.188;2023-01-28T02:00:16;4.90;;;3.83;;
35578;SDS011;21687;48.900;9.188;2023-01-28T02:03:03;4.77;;;3.77;;
35578;SDS011;21687;48.900;9.188;2023-01-28T02:05:50;5.07;;;3.90;;
35578;SDS011;21687;48.900;9.188;2023-01-28T02:08:37;4.70;;;3.83;;
35578;SDS011;21687;48.900;9.188;2023-01-28T02:11:24;5.37;;;4.13;;
35578;SDS011;21687;48.900;9.188;2023-01-28T02:14:16;5.90;;;4.00;;
35578;SDS011;21687;48.900;9.188;2023-01-28T02:17:04;6.27;;;4.30;;
35578;SDS011;21687;48.900;9.188;2023-01-28T02:32:07;4.40;;;3.53;;
35578;SDS011;21687;48.900;9.188;2023-01-28T02:35:22;5.07;;;4.07;;
35578;SDS011;21687;48.900;9.188;2023-01-28T02:38:28;5.63;;;3.97;;
35578;SDS011;21687;48.900;9.188;2023-01-28T02:41:20;5.60;;;4.37;;
35578;SDS011;21687;48.900;9.188;2023-01-28T02:44:16;9.20;;;3.97;;
35578;SDS011;21687;48.900;9.188;2023-01-28T02:47:08;5.50;;;4.37;;
35578;SDS011;21687;48.900;9.188;2023-01-28T02:50:15;4.77;;;3.60;;
35578;SDS011;21687;48.900;9.188;2023-01-28T02:53:07;6.00;;;4.20;;
35578;SDS011;21687;48.900;9.188;2023-01-28T02:56:24;5.77;;;4.17;;
35578;SDS011;21687;48.900;9.188;2023-01-28T02:59:47;5.50;;;4.20;;
35578;SDS011;21687;48.900;9.188;2023-01-28T03:05:36;6.37;;;4.73;;
35578;SDS011;21687;48.900;9.188;2023-01-28T03:08:52;6.40;;;4.80;;
35578;SDS011;21687;48.900;9.188;2023-01-28T03:12:01;6.03;;;4.97;;
35578;SDS011;21687;48.900;9.188;2023-01-28T03:15:13;6.30;;;4.97;;
35578;SDS011;21687;48.900;9.188;2023-01-28T03:18:23;6.57;;;5.00;;
35578;SDS011;21687;48.900;9.188;2023-01-28T03:21:36;6.77;;;4.87;;
35578;SDS011;21687;48.900;9.188;2023-01-28T03:24:46;7.67;;;5.47;;
35578;SDS011;21687;48.900;9.188;2023-01-28T03:27:55;6.57;;;5.20;;
35578;SDS011;21687;48.900;9.188;2023-01-28T03:31:06;5.90;;;4.37;;
35578;SDS011;21687;48.900;9.188;2023-01-28T03:34:15;6.43;;;4.70;;
35578;SDS011;21687;48.900;9.188;2023-01-28T03:37:21;6.90;;;5.10;;
35578;SDS011;21687;48.900;9.188;2023-01-28T03:40:08;7.33;;;5.00;;
35578;SDS011;21687;48.900;9.188;2023-01-28T03:42:56;7.17;;;5.43;;
35578;SDS011;21687;48.900;9.188;2023-01-28T03:45:42;7.07;;;5.33;;
35578;SDS011;21687;48.900;9.188;2023-01-28T03:48:30;6.60;;;4.83;;
35578;SDS011;21687;48.900;9.188;2023-01-28T03:51:17;6.07;;;4.63;;
35578;SDS011;21687;48.900;9.188;2023-01-28T03:54:04;7.03;;;5.67;;
35578;SDS011;21687;48.900;9.188;2023-01-28T03:56:50;6.37;;;4.83;;
35578;SDS011;21687;48.900;9.188;2023-01-28T03:59:37;7.80;;;5.37;;
35578;SDS011;21687;48.900;9.188;2023-01-28T04:02:23;6.23;;;4.90;;
35578;SDS011;21687;48.900;9.188;2023-01-28T04:05:11;6.03;;;4.87;;
35578;SDS011;21687;48.900;9.188;2023-01-28T04:07:59;6.70;;;5.07;;
35578;SDS011;21687;48.900;9.188;2023-01-28T04:10:46;6.70;;;5.10;;
35578;SDS011;21687;48.900;9.188;2023-01-28T04:13:38;6.90;;;5.30;;
35578;SDS011;21687;48.900;9.188;2023-01-28T04:16:28;6.30;;;4.87;;
35578;SDS011;21687;48.900;9.188;2023-01-28T04:19:14;7.20;;;5.30;;
35578;SDS011;21687;48.900;9.188;2023-01-28T04:22:01;7.73;;;5.33;;
35578;SDS011;21687;48.900;9.188;2023-01-28T04:24:51;7.33;;;5.27;;
35578;SDS011;21687;48.900;9.188;2023-01-28T04:27:38;6.17;;;4.83;;
35578;SDS011;21687;48.900;9.188;2023-01-28T04:30:25;8.30;;;5.53;;
35578;SDS011;21687;48.900;9.188;2023-01-28T04:33:12;7.53;;;5.17;;
35578;SDS011;21687;48.900;9.188;2023-01-28T04:35:59;7.33;;;5.67;;
35578;SDS011;21687;48.900;9.188;2023-01-28T04:38:45;7.37;;;5.43;;
35578;SDS011;21687;48.900;9.188;2023-01-28T04:41:32;6.73;;;4.90;;
35578;SDS011;21687;48.900;9.188;2023-01-28T04:44:18;7.10;;;5.03;;
35578;SDS011;21687;48.900;9.188;2023-01-28T04:47:05;7.43;;;5.53;;
35578;SDS011;21687;48.900;9.188;2023-01-28T04:49:51;6.87;;;5.27;;
35578;SDS011;21687;48.900;9.188;2023-01-28T04:52:38;6.70;;;5.00;;
35578;SDS011;21687;48.900;9.188;2023-01-28T04:55:25;8.10;;;5.87;;
35578;SDS011;21687;48.900;9.188;2023-01-28T04:58:11;7.60;;;5.30;;
35578;SDS011;21687;48.900;9.188;2023-01-28T05:00:58;7.93;;;5.30;;
35578;SDS011;21687;48.900;9.188;2023-01-28T05:03:45;8.20;;;5.87;;
35578;SDS011;21687;48.900;9.188;2023-01-28T05:06:31;8.03;;;5.43;;
35578;SDS011;21687;48.900;9.188;2023-01-28T05:09:18;8.00;;;5.83;;
35578;SDS011;21687;48.900;9.188;2023-01-28T05:12:04;8.13;;;5.67;;
35578;SDS011;21687;48.900;9.188;2023-01-28T05:14:51;7.33;;;5.47;;
35578;SDS011;21687;48.900;9.188;2023-01-28T05:17:38;9.33;;;6.30;;
35578;SDS011;21687;48.900;9.188;2023-01-28T05:20:24;9.60;;;6.30;;
35578;SDS011;21687;48.900;9.188;2023-01-28T05:23:11;8.20;;;5.93;;
35578;SDS011;21687;48.900;9.188;2023-01-28T05:25:57;9.27;;;6.70;;
35578;SDS011;21687;48.900;9.188;2023-01-28T05:28:44;9.63;;;6.63;;
35578;SDS011;21687;48.900;9.188;2023-01-28T05:31:31;10.17;;;6.93;;
35578;SDS011;21687;48.900;9.188;2023-01-28T05:34:17;9.37;;;6.77;;
35578;SDS011;21687;48.900;9.188;2023-01-28T05:37:04;10.37;;;6.80;;
35578;SDS011;21687;48.900;9.188;2023-01-28T05:39:50;8.90;;;6.20;;
35578;SDS011;21687;48.900;9.188;2023-01-28T05:42:40;9.47;;;6.60;;
35578;SDS011;21687;48.900;9.188;2023-01-28T05:45:27;9.87;;;6.97;;
35578;SDS011;21687;48.900;9.188;2023-01-28T05:48:13;11.47;;;7.03;;
35578;SDS011;21687;48.900;9.188;2023-01-28T05:51:00;9.57;;;7.30;;
35578;SDS011;21687;48.900;9.188;2023-01-28T05:53:49;9.70;;;6.27;;
35578;SDS011;21687;48.900;9.188;2023-01-28T05:56:36;9.33;;;6.63;;
35578;SDS011;21687;48.900;9.188;2023-01-28T05:59:22;9.47;;;6.93;;
35578;SDS011;21687;48.900;9.188;2023-01-28T06:02:09;9.63;;;7.20;;
35578;SDS011;21687;48.900;9.188;2023-01-28T06:04:55;12.37;;;7.43;;
35578;SDS011;21687;48.900;9.188;2023-01-28T06:07:45;9.83;;;7.00;;
35578;SDS011;21687;48.900;9.188;2023-01-28T06:10:32;11.30;;;6.47;;
35578;SDS011;21687;48.900;9.188;2023-01-28T06:13:19;9.40;;;6.90;;
35578;SDS011;21687;48.900;9.188;2023-01-28T06:16:06;10.00;;;7.43;;
35578;SDS011;21687;48.900;9.188;2023-01-28T06:18:55;12.07;;;7.17;;
35578;SDS011;21687;48.900;9.188;2023-01-28T06:21:41;10.37;;;7.37;;
35578;SDS011;21687;48.900;9.188;2023-01-28T06:24:28;12.20;;;6.93;;
35578;SDS011;21687;48.900;9.188;2023-01-28T06:27:15;9.60;;;6.53;;
35578;SDS011;21687;48.900;9.188;2023-01-28T06:30:04;9.47;;;6.87;;
35578;SDS011;21687;48.900;9.188;2023-01-28T06:32:54;9.53;;;7.00;;
35578;SDS011;21687;48.900;9.188;2023-01-28T06:35:41;11.07;;;7.40;;
35578;SDS011;21687;48.900;9.188;2023-01-28T06:38:29;8.93;;;6.77;;
35578;SDS011;21687;48.900;9.188;2023-01-28T06:41:15;11.53;;;7.40;;
35578;SDS011;21687;48.900;9.188;2023-01-28T06:44:02;10.23;;;7.47;;
35578;SDS011;21687;48.900;9.188;2023-01-28T06:46:49;10.37;;;7.23;;
35578;SDS011;21687;48.900;9.188;2023-01-28T06:49:36;10.27;;;7.20;;
35578;SDS011;21687;48.900;9.188;2023-01-28T06:52:22;10.47;;;7.57;;
35578;SDS011;21687;48.900;9.188;2023-01-28T06:55:09;10.87;;;7.33;;
35578;SDS011;21687;48.900;9.188;2023-01-28T06:57:58;11.13;;;7.53;;
35578;SDS011;21687;48.900;9.188;2023-01-28T07:00:44;9.70;;;7.70;;
35578;SDS011;21687;48.900;9.188;2023-01-28T07:03:31;11.27;;;7.37;;
35578;SDS011;21687;48.900;9.188;2023-01-28T07:06:17;10.93;;;7.67;;
35578;SDS011;21687;48.900;9.188;2023-01-28T07:09:04;10.73;;;7.87;;
35578;SDS011;21687;48.900;9.188;2023-01-28T07:11:51;11.67;;;7.97;;
35578;SDS011;21687;48.900;9.188;2023-01-28T07:14:37;10.17;;;7.47;;
35578;SDS011;21687;48.900;9.188;2023-01-28T07:17:24;10.60;;;7.83;;
35578;SDS011;21687;48.900;9.188;2023-01-28T07:20:11;12.07;;;7.70;;
35578;SDS011;21687;48.900;9.188;2023-01-28T07:22:59;10.30;;;7.57;;
35578;SDS011;21687;48.900;9.188;2023-01-28T07:25:45;11.33;;;8.30;;
35578;SDS011;21687;48.900;9.188;2023-01-28T07:28:32;10.97;;;8.03;;
35578;SDS011;21687;48.900;9.188;2023-01-28T07:31:18;12.17;;;8.73;;
35578;SDS011;21687;48.900;9.188;2023-01-28T07:34:05;11.23;;;8.13;;
35578;SDS011;21687;48.900;9.188;2023-01-28T07:36:53;14.80;;;8.87;;
35578;SDS011;21687;48.900;9.188;2023-01-28T07:39:40;12.63;;;8.80;;
35578;SDS011;21687;48.900;9.188;2023-01-28T07:42:26;12.50;;;8.77;;
35578;SDS011;21687;48.900;9.188;2023-01-28T07:45:13;12.37;;;8.60;;
35578;SDS011;21687;48.900;9.188;2023-01-28T07:48:01;12.67;;;8.07;;
35578;SDS011;21687;48.900;9.188;2023-01-28T07:50:50;12.37;;;8.77;;
35578;SDS011;21687;48.900;9.188;2023-01-28T07:53:36;14.47;;;9.10;;
35578;SDS011;21687;48.900;9.188;2023-01-28T07:56:23;13.83;;;8.37;;
35578;SDS011;21687;48.900;9.188;2023-01-28T07:59:13;12.63;;;8.53;;
35578;SDS011;21687;48.900;9.188;2023-01-28T08:02:00;12.40;;;8.50;;
35578;SDS011;21687;48.900;9.188;2023-01-28T08:04:47;12.40;;;8.13;;
35578;SDS011;21687;48.900;9.188;2023-01-28T08:07:15;13.70;;;9.10;;
35578;SDS011;21687;48.900;9.188;2023-01-28T08:09:42;12.27;;;8.27;;
35578;SDS011;21687;48.900;9.188;2023-01-28T08:12:08;12.60;;;8.47;;
35578;SDS011;21687;48.900;9.188;2023-01-28T08:14:35;11.17;;;8.50;;
35578;SDS011;21687;48.900;9.188;2023-01-28T08:17:01;13.63;;;8.87;;
35578;SDS011;21687;48.900;9.188;2023-01-28T08:19:27;12.43;;;9.03;;
35578;SDS011;21687;48.900;9.188;2023-01-28T08:21:54;13.07;;;9.50;;
35578;SDS011;21687;48.900;9.188;2023-01-28T08:24:20;13.97;;;9.20;;
35578;SDS011;21687;48.900;9.188;2023-01-28T08:26:46;15.07;;;9.17;;
35578;SDS011;21687;48.900;9.188;2023-01-28T08:29:13;13.27;;;8.93;;
35578;SDS011;21687;48.900;9.188;2023-01-28T08:31:39;12.43;;;8.57;;
35578;SDS011;21687;48.900;9.188;2023-01-28T08:34:05;13.43;;;8.90;;
35578;SDS011;21687;48.900;9.188;2023-01-28T08:36:32;11.03;;;8.33;;
35578;SDS011;21687;48.900;9.188;2023-01-28T08:38:58;13.57;;;9.33;;
35578;SDS011;21687;48.900;9.188;2023-01-28T08:41:24;14.07;;;9.73;;
35578;SDS011;21687;48.900;9.188;2023-01-28T08:43:50;13.17;;;9.10;;
35578;SDS011;21687;48.900;9.188;2023-01-28T08:46:17;12.37;;;9.17;;
35578;SDS011;21687;48.900;9.188;2023-01-28T08:48:43;14.80;;;9.80;;
35578;SDS011;21687;48.900;9.188;2023-01-28T08:51:09;13.33;;;9.93;;
35578;SDS011;21687;48.900;9.188;2023-01-28T08:53:35;13.87;;;9.70;;
35578;SDS011;21687;48.900;9.188;2023-01-28T08:56:02;15.07;;;10.00;;
35578;SDS011;21687;48.900;9.188;2023-01-28T08:58:28;15.33;;;10.20;;
35578;SDS011;21687;48.900;9.188;2023-01-28T09:00:54;14.47;;;9.90;;
35578;SDS011;21687;48.900;9.188;2023-01-28T09:03:21;13.23;;;9.67;;
35578;SDS011;21687;48.900;9.188;2023-01-28T09:05:47;13.93;;;10.00;;
35578;SDS011;21687;48.900;9.188;2023-01-28T09:08:14;15.07;;;9.90;;
35578;SDS011;21687;48.900;9.188;2023-01-28T09:10:41;13.90;;;9.83;;
35578;SDS011;21687;48.900;9.188;2023-01-28T09:13:11;16.23;;;9.47;;
35578;SDS011;21687;48.900;9.188;2023-01-28T09:15:40;15.47;;;10.93;;
35578;SDS011;21687;48.900;9.188;2023-01-28T09:18:07;13.00;;;10.20;;
35578;SDS011;21687;48.900;9.188;2023-01-28T09:20:33;14.67;;;9.90;;
35578;SDS011;21687;48.900;9.188;2023-01-28T09:23:00;17.23;;;10.63;;
35578;SDS011;21687;48.900;9.188;2023-01-28T09:25:27;13.77;;;9.50;;
35578;SDS011;21687;48.900;9.188;2023-01-28T09:27:53;16.30;;;11.20;;
35578;SDS011;21687;48.900;9.188;2023-01-28T09:30:20;13.80;;;9.93;;
35578;SDS011;21687;48.900;9.188;2023-01-28T09:32:48;15.00;;;10.43;;
35578;SDS011;21687;48.900;9.188;2023-01-28T09:35:15;15.43;;;10.60;;
35578;SDS011;21687;48.900;9.188;2023-01-28T09:37:43;15.73;;;10.47;;
35578;SDS011;21687;48.900;9.188;2023-01-28T09:40:11;16.87;;;11.07;;
35578;SDS011;21687;48.900;9.188;2023-01-28T09:42:58;17.20;;;11.00;;
35578;SDS011;21687;48.900;9.188;2023-01-28T09:45:35;15.10;;;11.13;;
35578;SDS011;21687;48.900;9.188;2023-01-28T09:48:18;16.67;;;10.77;;
35578;SDS011;21687;48.900;9.188;2023-01-28T09:50:49;16.30;;;11.03;;
35578;SDS011;21687;48.900;9.188;2023-01-28T09:53:24;17.97;;;11.70;;
35578;SDS011;21687;48.900;9.188;2023-01-28T09:58:35;18.13;;;11.00;;
35578;SDS011;21687;48.900;9.188;2023-01-28T10:03:39;18.30;;;11.47;;
35578;SDS011;21687;48.900;9.188;2023-01-28T10:15:27;19.87;;;12.40;;
35578;SDS011;21687;48.900;9.188;2023-01-28T10:18:08;17.43;;;11.20;;
35578;SDS011;21687;48.900;9.188;2023-01-28T10:20:37;19.87;;;12.47;;
35578;SDS011;21687;48.900;9.188;2023-01-28T10:26:03;21.13;;;12.23;;
35578;SDS011;21687;48.900;9.188;2023-01-28T10:28:36;17.97;;;11.37;;
35578;SDS011;21687;48.900;9.188;2023-01-28T10:31:09;17.00;;;10.80;;
35578;SDS011;21687;48.900;9.188;2023-01-28T10:33:38;16.70;;;11.70;;
35578;SDS011;21687;48.900;9.188;2023-01-28T10:36:04;17.97;;;11.43;;
35578;SDS011;21687;48.900;9.188;2023-01-28T10:38:33;19.30;;;12.10;;
35578;SDS011;21687;48.900;9.188;2023-01-28T10:41:01;16.03;;;11.17;;
35578;SDS011;21687;48.900;9.188;2023-01-28T10:43:33;16.63;;;10.93;;
35578;SDS011;21687;48.900;9.188;2023-01-28T10:48:42;17.40;;;11.47;;
35578;SDS011;21687;48.900;9.188;2023-01-28T10:51:30;15.67;;;10.83;;
35578;SDS011;21687;48.900;9.188;2023-01-28T10:57:01;19.37;;;12.10;;
35578;SDS011;21687;48.900;9.188;2023-01-28T10:59:32;15.43;;;10.27;;
35578;SDS011;21687;48.900;9.188;2023-01-28T11:02:04;15.87;;;10.30;;
35578;SDS011;21687;48.900;9.188;2023-01-28T11:04:59;16.67;;;10.30;;
35578;SDS011;21687;48.900;9.188;2023-01-28T11:07:28;14.63;;;9.97;;
35578;SDS011;21687;48.900;9.188;2023-01-28T11:09:54;17.20;;;11.17;;
35578;SDS011;21687;48.900;9.188;2023-01-28T11:12:25;17.43;;;11.47;;
35578;SDS011;21687;48.900;9.188;2023-01-28T11:17:32;19.50;;;11.73;;
35578;SDS011;21687;48.900;9.188;2023-01-28T11:23:01;16.77;;;10.60;;
35578;SDS011;21687;48.900;9.188;2023-01-28T11:25:34;16.03;;;10.70;;
35578;SDS011;21687;48.900;9.188;2023-01-28T11:28:02;16.87;;;11.30;;
35578;SDS011;21687;48.900;9.188;2023-01-28T11:30:39;18.87;;;11.17;;
35578;SDS011;21687;48.900;9.188;2023-01-28T11:33:20;17.53;;;10.90;;
35578;SDS011;21687;48.900;9.188;2023-01-28T11:35:53;16.03;;;10.57;;
35578;SDS011;21687;48.900;9.188;2023-01-28T11:38:23;18.67;;;11.57;;
35578;SDS011;21687;48.900;9.188;2023-01-28T11:40:50;18.37;;;11.67;;
35578;SDS011;21687;48.900;9.188;2023-01-28T11:43:19;19.80;;;11.97;;
35578;SDS011;21687;48.900;9.188;2023-01-28T11:51:15;17.77;;;11.30;;
35578;SDS011;21687;48.900;9.188;2023-01-28T11:56:48;24.53;;;13.40;;
35578;SDS011;21687;48.900;9.188;2023-01-28T12:05:28;14.60;;;9.73;;
35578;SDS011;21687;48.900;9.188;2023-01-28T12:08:01;15.97;;;9.20;;
35578;SDS011;21687;48.900;9.188;2023-01-28T12:18:42;14.43;;;9.13;;
35578;SDS011;21687;48.900;9.188;2023-01-28T12:24:36;14.87;;;9.00;;
35578;SDS011;21687;48.900;9.188;2023-01-28T12:27:17;15.60;;;10.27;;
35578;SDS011;21687;48.900;9.188;2023-01-28T12:37:58;15.23;;;9.87;;
35578;SDS011;21687;48.900;9.188;2023-01-28T12:43:07;16.40;;;10.07;;
35578;SDS011;21687;48.900;9.188;2023-01-28T12:45:43;15.57;;;9.30;;
35578;SDS011;21687;48.900;9.188;2023-01-28T12:48:39;15.17;;;9.93;;
35578;SDS011;21687;48.900;9.188;2023-01-28T12:51:13;16.50;;;9.50;;
35578;SDS011;21687;48.900;9.188;2023-01-28T12:53:46;14.20;;;9.27;;
35578;SDS011;21687;48.900;9.188;2023-01-28T12:56:17;16.27;;;10.40;;
35578;SDS011;21687;48.900;9.188;2023-01-28T12:58:52;21.07;;;11.73;;
35578;SDS011;21687;48.900;9.188;2023-01-28T13:01:36;16.27;;;9.80;;
35578;SDS011;21687;48.900;9.188;2023-01-28T13:06:49;14.87;;;9.17;;
35578;SDS011;21687;48.900;9.188;2023-01-28T13:09:21;13.70;;;9.90;;
35578;SDS011;21687;48.900;9.188;2023-01-28T13:11:51;18.30;;;10.93;;
35578;SDS011;21687;48.900;9.188;2023-01-28T13:14:21;15.07;;;10.33;;
35578;SDS011;21687;48.900;9.188;2023-01-28T13:17:07;16.53;;;10.40;;
35578;SDS011;21687;48.900;9.188;2023-01-28T13:19:35;18.97;;;11.17;;
35578;SDS011;21687;48.900;9.188;2023-01-28T13:22:09;19.30;;;10.47;;
35578;SDS011;21687;48.900;9.188;2023-01-28T13:24:37;16.80;;;10.37;;
35578;SDS011;21687;48.900;9.188;2023-01-28T13:27:10;19.10;;;9.93;;
35578;SDS011;21687;48.900;9.188;2023-01-28T13:29:46;13.00;;;9.37;;
35578;SDS011;21687;48.900;9.188;2023-01-28T13:32:27;15.10;;;9.60;;
35578;SDS011;21687;48.900;9.188;2023-01-28T13:35:03;13.20;;;10.03;;
35578;SDS011;21687;48.900;9.188;2023-01-28T13:37:32;15.40;;;9.97;;
35578;SDS011;21687;48.900;9.188;2023-01-28T13:42:33;15.27;;;9.97;;
35578;SDS011;21687;48.900;9.188;2023-01-28T13:45:21;14.23;;;10.23;;
35578;SDS011;21687;48.900;9.188;2023-01-28T13:50:47;16.27;;;9.90;;
35578;SDS011;21687;48.900;9.188;2023-01-28T13:53:36;16.40;;;9.90;;
35578;SDS011;21687;48.900;9.188;2023-01-28T13:56:19;15.00;;;9.83;;
35578;SDS011;21687;48.900;9.188;2023-01-28T13:59:38;14.13;;;9.43;;
35578;SDS011;21687;48.900;9.188;2023-01-28T14:01:57;12.67;;;8.90;;
35578;SDS011;21687;48.900;9.188;2023-01-28T14:07:33;13.40;;;9.10;;
35578;SDS011;21687;48.900;9.188;2023-01-28T14:18:31;11.13;;;8.67;;
35578;SDS011;21687;48.900;9.188;2023-01-28T14:21:07;12.47;;;8.03;;
35578;SDS011;21687;48.900;9.188;2023-01-28T14:23:36;12.20;;;8.33;;
35578;SDS011;21687;48.900;9.188;2023-01-28T14:31:43;10.57;;;7.50;;
35578;SDS011;21687;48.900;9.188;2023-01-28T14:36:43;10.20;;;6.47;;
35578;SDS011;21687;48.900;9.188;2023-01-28T14:39:18;9.50;;;6.70;;
35578;SDS011;21687;48.900;9.188;2023-01-28T14:41:49;6.93;;;6.10;;
35578;SDS011;21687;48.900;9.188;2023-01-28T14:47:14;7.80;;;6.00;;
35578;SDS011;21687;48.900;9.188;2023-01-28T14:57:57;9.47;;;6.80;;
35578;SDS011;21687;48.900;9.188;2023-01-28T15:00:31;7.87;;;6.13;;
35578;SDS011;21687;48.900;9.188;2023-01-28T15:02:59;7.63;;;5.90;;
35578;SDS011;21687;48.900;9.188;2023-01-28T15:05:32;8.43;;;6.10;;
35578;SDS011;21687;48.900;9.188;2023-01-28T15:08:00;8.27;;;6.33;;
35578;SDS011;21687;48.900;9.188;2023-01-28T15:11:13;10.13;;;6.80;;
35578;SDS011;21687;48.900;9.188;2023-01-28T15:14:12;7.63;;;6.10;;
35578;SDS011;21687;48.900;9.188;2023-01-28T15:16:46;9.97;;;6.33;;
35578;SDS011;21687;48.900;9.188;2023-01-28T15:19:13;11.13;;;6.97;;
35578;SDS011;21687;48.900;9.188;2023-01-28T15:21:40;8.60;;;6.40;;
35578;SDS011;21687;48.900;9.188;2023-01-28T15:24:10;8.30;;;5.80;;
35578;SDS011;21687;48.900;9.188;2023-01-28T15:26:38;8.57;;;6.20;;
35578;SDS011;21687;48.900;9.188;2023-01-28T15:29:29;8.37;;;6.30;;
35578;SDS011;21687;48.900;9.188;2023-01-28T15:31:57;9.57;;;6.53;;
35578;SDS011;21687;48.900;9.188;2023-01-28T15:34:24;7.20;;;5.77;;
35578;SDS011;21687;48.900;9.188;2023-01-28T15:36:59;7.97;;;5.83;;
35578;SDS011;21687;48.900;9.188;2023-01-28T15:39:27;7.00;;;5.90;;
35578;SDS011;21687;48.900;9.188;2023-01-28T15:41:57;6.03;;;5.20;;
35578;SDS011;21687;48.900;9.188;2023-01-28T15:44:47;7.17;;;5.43;;
35578;SDS011;21687;48.900;9.188;2023-01-28T15:47:22;7.23;;;5.47;;
35578;SDS011;21687;48.900;9.188;2023-01-28T15:49:56;7.17;;;5.83;;
35578;SDS011;21687;48.900;9.188;2023-01-28T15:52:29;7.23;;;6.10;;
35578;SDS011;21687;48.900;9.188;2023-01-28T15:55:03;6.43;;;5.40;;
35578;SDS011;21687;48.900;9.188;2023-01-28T15:57:31;9.17;;;6.00;;
35578;SDS011;21687;48.900;9.188;2023-01-28T16:00:03;7.57;;;5.37;;
35578;SDS011;21687;48.900;9.188;2023-01-28T16:02:29;6.57;;;5.23;;
35578;SDS011;21687;48.900;9.188;2023-01-28T16:05:00;6.10;;;5.27;;
35578;SDS011;21687;48.900;9.188;2023-01-28T16:07:29;7.63;;;5.77;;
35578;SDS011;21687;48.900;9.188;2023-01-28T16:09:57;6.13;;;5.20;;
35578;SDS011;21687;48.900;9.188;2023-01-28T16:12:25;8.60;;;5.27;;
35578;SDS011;21687;48.900;9.188;2023-01-28T16:14:56;8.10;;;5.70;;
35578;SDS011;21687;48.900;9.188;2023-01-28T16:17:37;6.97;;;5.63;;
35578;SDS011;21687;48.900;9.188;2023-01-28T16:20:25;8.10;;;5.67;;
35578;SDS011;21687;48.900;9.188;2023-01-28T16:22:53;7.17;;;5.40;;
35578;SDS011;21687;48.900;9.188;2023-01-28T16:28:01;6.73;;;5.33;;
35578;SDS011;21687;48.900;9.188;2023-01-28T16:30:29;7.83;;;5.37;;
35578;SDS011;21687;48.900;9.188;2023-01-28T16:32:55;8.00;;;5.77;;
35578;SDS011;21687;48.900;9.188;2023-01-28T16:35:23;7.83;;;5.53;;
35578;SDS011;21687;48.900;9.188;2023-01-28T16:37:52;8.47;;;5.17;;
35578;SDS011;21687;48.900;9.188;2023-01-28T16:40:20;7.03;;;5.70;;
35578;SDS011;21687;48.900;9.188;2023-01-28T16:42:47;6.13;;;5.33;;
35578;SDS011;21687;48.900;9.188;2023-01-28T16:45:19;6.63;;;5.50;;
35578;SDS011;21687;48.900;9.188;2023-01-28T16:47:47;7.33;;;5.77;;
35578;SDS011;21687;48.900;9.188;2023-01-28T16:50:14;7.23;;;5.70;;
35578;SDS011;21687;48.900;9.188;2023-01-28T16:52:42;7.67;;;5.70;;
35578;SDS011;21687;48.900;9.188;2023-01-28T16:55:14;7.80;;;5.63;;
35578;SDS011;21687;48.900;9.188;2023-01-28T16:57:42;8.47;;;6.00;;
35578;SDS011;21687;48.900;9.188;2023-01-28T17:00:16;7.87;;;6.20;;
35578;SDS011;21687;48.900;9.188;2023-01-28T17:02:47;9.57;;;6.53;;
35578;SDS011;21687;48.900;9.188;2023-01-28T17:05:14;7.37;;;6.10;;
35578;SDS011;21687;48.900;9.188;2023-01-28T17:07:40;7.70;;;6.20;;
35578;SDS011;21687;48.900;9.188;2023-01-28T17:10:07;10.43;;;7.13;;
35578;SDS011;21687;48.900;9.188;2023-01-28T17:12:34;8.00;;;6.10;;
35578;SDS011;21687;48.900;9.188;2023-01-28T17:15:00;9.40;;;7.10;;
35578;SDS011;21687;48.900;9.188;2023-01-28T17:17:28;8.83;;;7.03;;
35578;SDS011;21687;48.900;9.188;2023-01-28T17:19:54;10.90;;;7.30;;
35578;SDS011;21687;48.900;9.188;2023-01-28T17:22:20;15.80;;;9.93;;
35578;SDS011;21687;48.900;9.188;2023-01-28T17:24:46;10.27;;;7.67;;
35578;SDS011;21687;48.900;9.188;2023-01-28T17:27:12;10.07;;;6.70;;
35578;SDS011;21687;48.900;9.188;2023-01-28T17:29:39;9.97;;;6.73;;
35578;SDS011;21687;48.900;9.188;2023-01-28T17:32:05;8.43;;;6.97;;
35578;SDS011;21687;48.900;9.188;2023-01-28T17:34:31;7.60;;;6.00;;
35578;SDS011;21687;48.900;9.188;2023-01-28T17:36:57;7.53;;;6.27;;
35578;SDS011;21687;48.900;9.188;2023-01-28T17:39:24;7.20;;;6.30;;
35578;SDS011;21687;48.900;9.188;2023-01-28T17:41:50;8.53;;;6.33;;
35578;SDS011;21687;48.900;9.188;2023-01-28T17:44:18;9.33;;;6.17;;
35578;SDS011;21687;48.900;9.188;2023-01-28T17:46:44;9.60;;;7.03;;
35578;SDS011;21687;48.900;9.188;2023-01-28T17:49:11;10.37;;;7.43;;
35578;SDS011;21687;48.900;9.188;2023-01-28T17:51:38;10.00;;;6.53;;
35578;SDS011;21687;48.900;9.188;2023-01-28T17:54:04;10.93;;;7.30;;